createdAt,value
2022-12-03T00:00:23.074Z,102397.41
2022-12-03T00:02:50.293Z,102399.16
2022-12-03T00:05:17.596Z,102394.84
2022-12-03T00:07:45.081Z,102388.84
2022-12-03T00:10:12.600Z,102392.03
2022-12-03T00:12:39.779Z,102392.41
2022-12-03T00:15:09.419Z,102391.50
2022-12-03T00:17:36.551Z,102385.66
2022-12-03T00:20:05.682Z,102393.28
2022-12-03T00:22:32.740Z,102385.25
2022-12-03T00:24:59.818Z,102386.56
2022-12-03T00:27:26.999Z,102384.00
2022-12-03T00:29:54.063Z,102385.66
2022-12-03T00:32:21.105Z,102389.09
2022-12-03T00:34:48.235Z,102379.78
2022-12-03T00:37:15.289Z,102371.09
2022-12-03T00:39:42.292Z,102372.25
2022-12-03T00:42:09.353Z,102375.81
2022-12-03T00:44:36.395Z,102363.06
2022-12-03T00:47:03.821Z,102371.09
2022-12-03T00:49:31.171Z,102367.78
2022-12-03T00:51:58.170Z,102367.16
2022-12-03T00:54:30.202Z,102352.66
2022-12-03T00:56:59.001Z,102369.59
2022-12-03T00:59:26.066Z,102347.81
2022-12-03T01:01:53.193Z,102355.97
2022-12-03T01:04:20.395Z,102358.63
2022-12-03T01:06:47.593Z,102350.84
2022-12-03T01:09:14.754Z,102353.03
2022-12-03T01:11:41.963Z,102351.13
2022-12-03T01:14:12.044Z,102342.56
2022-12-03T01:16:39.866Z,102352.25
2022-12-03T01:19:08.802Z,102344.72
2022-12-03T01:21:36.676Z,102338.75
2022-12-03T01:24:04.613Z,102341.31
2022-12-03T01:26:31.618Z,102342.94
2022-12-03T01:28:58.712Z,102333.38
2022-12-03T01:31:44.776Z,102331.59
2022-12-03T01:34:12.054Z,102341.53
2022-12-03T01:36:39.170Z,102340.00
2022-12-03T01:39:06.244Z,102331.38
2022-12-03T01:41:35.514Z,102340.66
2022-12-03T01:44:04.608Z,102336.44
2022-12-03T01:46:39.052Z,102345.00
2022-12-03T01:49:07.066Z,102340.78
2022-12-03T01:51:34.175Z,102340.00
2022-12-03T01:54:03.291Z,102344.47
2022-12-03T01:56:30.391Z,102323.44
2022-12-03T01:58:57.471Z,102337.56
2022-12-03T02:01:24.595Z,102332.59
2022-12-03T02:03:51.708Z,102335.28
2022-12-03T02:06:21.461Z,102336.03
2022-12-03T02:08:49.204Z,102336.91
2022-12-03T02:11:25.428Z,102335.94
2022-12-03T02:13:57.278Z,102333.59
2022-12-03T02:16:24.546Z,102327.63
2022-12-03T02:18:51.773Z,102328.28
2022-12-03T02:21:40.142Z,102326.72
2022-12-03T02:24:17.448Z,102331.06
2022-12-03T02:26:45.062Z,102326.88
2022-12-03T02:29:12.127Z,102326.88
2022-12-03T02:31:39.303Z,102324.31
2022-12-03T02:34:07.489Z,102314.72
2022-12-03T02:36:36.148Z,102323.78
2022-12-03T02:39:05.194Z,102326.59
2022-12-03T02:41:51.198Z,102320.56
2022-12-03T02:44:18.428Z,102319.81
2022-12-03T02:46:45.733Z,102305.91
2022-12-03T02:49:12.823Z,102315.63
2022-12-03T02:51:39.840Z,102311.50
2022-12-03T02:54:06.965Z,102321.97
2022-12-03T02:56:34.201Z,102308.59
2022-12-03T02:59:05.341Z,102313.19
2022-12-03T03:01:32.654Z,102315.84
2022-12-03T03:04:00.607Z,102313.28
2022-12-03T03:06:27.673Z,102304.63
2022-12-03T03:08:55.583Z,102302.06
2022-12-03T03:11:24.009Z,102302.31
2022-12-03T03:13:51.009Z,102305.00
2022-12-03T03:16:18.020Z,102283.88
2022-12-03T03:18:45.337Z,102304.13
2022-12-03T03:21:13.052Z,102299.00
2022-12-03T03:23:40.161Z,102305.75
2022-12-03T03:26:09.845Z,102300.03
2022-12-03T03:28:44.742Z,102296.56
2022-12-03T03:31:14.477Z,102298.34
2022-12-03T03:33:45.530Z,102294.13
2022-12-03T03:36:14.778Z,102286.47
2022-12-03T03:38:42.036Z,102280.13
2022-12-03T03:41:11.550Z,102293.25
2022-12-03T03:43:40.562Z,102286.47
2022-12-03T03:46:08.037Z,102295.16
2022-12-03T03:48:36.070Z,102287.50
2022-12-03T03:51:08.808Z,102279.84
2022-12-03T03:53:38.994Z,102276.28
2022-12-03T03:56:06.866Z,102282.41
2022-12-03T03:58:34.116Z,102283.41
2022-12-03T04:01:01.388Z,102282.53
2022-12-03T04:03:29.641Z,102280.88
2022-12-03T04:05:56.674Z,102276.53
2022-12-03T04:08:23.769Z,102285.84
2022-12-03T04:11:17.165Z,102273.09
2022-12-03T04:13:45.208Z,102274.88
2022-12-03T04:16:12.258Z,102282.53
2022-12-03T04:18:45.032Z,102270.66
2022-12-03T04:21:36.583Z,102270.13
2022-12-03T04:24:04.914Z,102265.56
2022-12-03T04:26:50.930Z,102273.47
2022-12-03T04:29:18.519Z,102272.44
2022-12-03T04:32:04.985Z,102266.44
2022-12-03T04:34:50.540Z,102263.78
2022-12-03T04:37:17.809Z,102253.19
2022-12-03T04:39:44.901Z,102263.13
2022-12-03T04:42:12.051Z,102258.00
2022-12-03T04:44:39.154Z,102258.91
2022-12-03T04:47:13.326Z,102262.34
2022-12-03T04:49:46.150Z,102264.13
2022-12-03T04:52:15.151Z,102253.47
2022-12-03T04:54:42.783Z,102249.47
2022-12-03T04:57:10.945Z,102253.81
2022-12-03T04:59:38.131Z,102260.72
2022-12-03T05:02:06.308Z,102241.56
2022-12-03T05:04:33.901Z,102262.47
2022-12-03T05:07:01.027Z,102257.34
2022-12-03T05:09:28.111Z,102256.38
2022-12-03T05:11:55.168Z,102249.22
2022-12-03T05:14:22.240Z,102258.66
2022-12-03T05:16:49.322Z,102256.13
2022-12-03T05:19:16.376Z,102257.78
2022-12-03T05:21:43.377Z,102257.66
2022-12-03T05:24:10.450Z,102248.00
2022-12-03T05:26:37.479Z,102256.53
2022-12-03T05:29:04.693Z,102244.19
2022-12-03T05:31:31.926Z,102249.53
2022-12-03T05:33:59.071Z,102252.84
2022-12-03T05:36:26.236Z,102232.88
2022-12-03T05:38:53.403Z,102245.84
2022-12-03T05:41:38.866Z,102247.50
2022-12-03T05:44:05.917Z,102243.69
2022-12-03T05:46:33.526Z,102244.59
2022-12-03T05:49:00.659Z,102234.13
2022-12-03T05:51:27.772Z,102238.59
2022-12-03T05:53:55.070Z,102231.72
2022-12-03T05:56:22.141Z,102230.72
2022-12-03T05:58:49.136Z,102226.63
2022-12-03T06:01:16.598Z,102231.59
2022-12-03T06:03:44.239Z,102235.28
2022-12-03T06:06:11.482Z,102229.28
2022-12-03T06:08:38.534Z,102226.84
2022-12-03T06:11:05.676Z,102215.63
2022-12-03T06:13:32.725Z,102218.44
2022-12-03T06:15:59.994Z,102206.44
2022-12-03T06:18:27.060Z,102210.69
2022-12-03T06:20:54.045Z,102197.97
2022-12-03T06:23:21.088Z,102214.88
2022-12-03T06:25:48.135Z,102209.66
2022-12-03T06:28:15.231Z,102216.00
2022-12-03T06:30:42.724Z,102207.09
2022-12-03T06:33:09.904Z,102217.41
2022-12-03T06:35:37.587Z,102212.31
2022-12-03T06:38:04.809Z,102216.28
2022-12-03T06:40:31.873Z,102216.44
2022-12-03T06:42:58.902Z,102213.09
2022-12-03T06:45:26.158Z,102209.28
2022-12-03T06:47:53.160Z,102216.44
2022-12-03T06:50:20.367Z,102207.63
2022-12-03T06:52:47.372Z,102214.00
2022-12-03T06:55:14.785Z,102212.09
2022-12-03T06:57:41.844Z,102209.56
2022-12-03T07:00:09.653Z,102203.31
2022-12-03T07:02:36.848Z,102207.97
2022-12-03T07:05:05.097Z,102222.31
2022-12-03T07:07:32.412Z,102220.50
2022-12-03T07:09:59.700Z,102213.75
2022-12-03T07:12:26.813Z,102221.28
2022-12-03T07:14:54.062Z,102223.56
2022-12-03T07:17:21.325Z,102221.94
2022-12-03T07:19:48.342Z,102225.25
2022-12-03T07:22:18.909Z,102233.78
2022-12-03T07:24:46.018Z,102231.88
2022-12-03T07:27:13.117Z,102234.44
2022-12-03T07:29:40.162Z,102223.84
2022-12-03T07:32:07.150Z,102236.09
2022-12-03T07:34:34.444Z,102239.53
2022-12-03T07:37:01.635Z,102233.19
2022-12-03T07:39:28.639Z,102243.59
2022-12-03T07:41:56.043Z,102239.94
2022-12-03T07:44:23.116Z,102235.38
2022-12-03T07:46:50.186Z,102232.56
2022-12-03T07:49:17.249Z,102239.59
2022-12-03T07:51:53.383Z,102238.03
2022-12-03T07:54:21.593Z,102236.00
2022-12-03T07:56:48.640Z,102237.91
2022-12-03T07:59:16.607Z,102236.91
2022-12-03T08:01:43.930Z,102227.09
2022-12-03T08:04:15.061Z,102220.25
2022-12-03T08:06:42.135Z,102229.78
2022-12-03T08:09:13.173Z,102233.88
2022-12-03T08:11:47.883Z,102236.41
2022-12-03T08:14:17.617Z,102234.50
2022-12-03T08:16:46.328Z,102229.03
2022-12-03T08:19:17.686Z,102234.25
2022-12-03T08:21:45.203Z,102228.16
2022-12-03T08:24:18.538Z,102226.38
2022-12-03T08:26:47.149Z,102226.50
2022-12-03T08:29:19.633Z,102217.81
2022-12-03T08:31:55.985Z,102223.84
2022-12-03T08:34:27.069Z,102218.38
2022-12-03T08:37:09.295Z,102229.69
2022-12-03T08:39:44.497Z,102221.91
2022-12-03T08:42:42.983Z,102217.59
2022-12-03T08:45:28.348Z,102216.56
2022-12-03T08:48:00.123Z,102214.91
2022-12-03T08:50:29.096Z,102218.09
2022-12-03T08:53:11.269Z,102215.44
2022-12-03T08:55:46.635Z,102213.00
2022-12-03T08:58:24.989Z,102218.09
2022-12-03T09:00:58.604Z,102207.69
2022-12-03T09:03:30.640Z,102211.22
2022-12-03T09:05:57.786Z,102212.13
2022-12-03T09:08:45.324Z,102213.00
2022-12-03T09:11:12.839Z,102208.81
2022-12-03T09:13:40.208Z,102208.66
2022-12-03T09:16:07.785Z,102201.16
2022-12-03T09:18:35.224Z,102209.94
2022-12-03T09:21:02.324Z,102184.38
2022-12-03T09:23:29.298Z,102203.84
2022-12-03T09:25:56.364Z,102199.63
2022-12-03T09:28:23.526Z,102194.41
2022-12-03T09:30:50.519Z,102201.78
2022-12-03T09:33:17.560Z,102202.53
2022-12-03T09:35:44.625Z,102204.69
2022-12-03T09:38:11.648Z,102199.59
2022-12-03T09:40:39.230Z,102201.50
2022-12-03T09:43:06.531Z,102205.06
2022-12-03T09:45:33.577Z,102200.34
2022-12-03T09:48:02.967Z,102202.31
2022-12-03T09:50:31.287Z,102191.97
2022-12-03T09:53:03.670Z,102202.41
2022-12-03T09:55:31.115Z,102198.84
2022-12-03T09:57:58.840Z,102198.44
2022-12-03T10:00:29.550Z,102198.34
2022-12-03T10:03:01.159Z,102203.94
2022-12-03T10:05:29.133Z,102201.28
2022-12-03T10:08:05.278Z,102201.28
2022-12-03T10:10:33.649Z,102198.66
2022-12-03T10:13:01.142Z,102199.78
2022-12-03T10:15:28.285Z,102208.03
2022-12-03T10:18:22.690Z,102204.47
2022-12-03T10:20:51.912Z,102201.28
2022-12-03T10:23:29.859Z,102207.69
2022-12-03T10:26:03.559Z,102203.06
2022-12-03T10:28:33.200Z,102200.75
2022-12-03T10:31:02.407Z,102203.94
2022-12-03T10:33:33.080Z,102204.84
2022-12-03T10:36:21.334Z,102200.63
2022-12-03T10:39:10.633Z,102194.66
2022-12-03T10:41:38.442Z,102174.19
2022-12-03T10:44:20.686Z,102189.78
2022-12-03T10:47:10.639Z,102181.28
2022-12-03T10:49:38.330Z,102185.38
2022-12-03T10:52:06.868Z,102169.38
2022-12-03T10:54:35.415Z,102175.72
2022-12-03T10:57:02.437Z,102170.63
2022-12-03T10:59:32.827Z,102173.91
2022-12-03T11:01:59.946Z,102154.47
2022-12-03T11:04:34.016Z,102165.13
2022-12-03T11:07:14.049Z,102149.56
2022-12-03T11:09:44.263Z,102166.91
2022-12-03T11:12:22.982Z,102155.56
2022-12-03T11:14:54.051Z,102157.97
2022-12-03T11:17:41.233Z,102159.00
2022-12-03T11:20:24.956Z,102156.19
2022-12-03T11:22:53.856Z,102142.88
2022-12-03T11:25:27.084Z,102160.81
2022-12-03T11:28:12.397Z,102146.72
2022-12-03T11:30:51.465Z,102142.59
2022-12-03T11:33:39.374Z,102139.47
2022-12-03T11:36:06.382Z,102135.41
2022-12-03T11:38:56.092Z,102130.47
2022-12-03T11:41:26.283Z,102139.25
2022-12-03T11:43:53.265Z,102129.94
2022-12-03T11:46:38.684Z,102131.84
2022-12-03T11:49:39.796Z,102103.63
2022-12-03T11:52:40.134Z,102118.72
2022-12-03T11:55:18.311Z,102125.97
2022-12-03T11:57:46.351Z,102112.75
2022-12-03T12:00:16.255Z,102116.81
2022-12-03T12:02:44.298Z,102119.34
2022-12-03T12:05:22.699Z,102120.34
2022-12-03T12:07:50.552Z,102110.81
2022-12-03T12:10:47.745Z,102108.25
2022-12-03T12:13:35.325Z,102103.94
2022-12-03T12:16:06.228Z,102106.63
2022-12-03T12:18:54.867Z,102102.78
2022-12-03T12:21:43.696Z,102094.25
2022-12-03T12:24:46.925Z,102092.09
2022-12-03T12:27:23.161Z,102088.50
2022-12-03T12:29:59.329Z,102087.00
2022-12-03T12:32:35.004Z,102073.88
2022-12-03T12:35:22.098Z,102073.50
2022-12-03T12:38:08.645Z,102055.34
2022-12-03T12:40:38.606Z,102053.47
2022-12-03T12:43:24.726Z,102068.97
2022-12-03T12:46:13.617Z,102073.69
2022-12-03T12:48:47.239Z,102051.06
2022-12-03T12:51:19.444Z,102056.38
2022-12-03T12:53:47.056Z,102046.63
2022-12-03T12:56:27.577Z,102057.78
2022-12-03T12:58:59.236Z,102058.56
2022-12-03T13:01:29.510Z,102056.38
2022-12-03T13:03:57.220Z,102054.59
2022-12-03T13:06:27.384Z,102060.50
2022-12-03T13:08:58.449Z,102052.84
2022-12-03T13:11:25.897Z,102057.28
2022-12-03T13:13:53.062Z,102044.31
2022-12-03T13:16:27.862Z,102046.19
2022-12-03T13:18:57.074Z,102051.56
2022-12-03T13:21:40.450Z,102045.03
2022-12-03T13:24:45.665Z,102042.00
2022-12-03T13:27:19.590Z,102054.97
2022-12-03T13:29:50.598Z,102046.09
2022-12-03T13:32:34.356Z,102047.50
2022-12-03T13:35:22.814Z,102050.59
2022-12-03T13:37:49.938Z,102032.63
2022-12-03T13:40:22.926Z,102034.13
2022-12-03T13:42:50.062Z,102037.47
2022-12-03T13:45:19.781Z,102035.16
2022-12-03T13:47:49.566Z,102025.75
2022-12-03T13:50:34.140Z,102033.38
2022-12-03T13:53:05.642Z,102023.09
2022-12-03T13:55:32.749Z,102024.59
2022-12-03T13:57:59.836Z,102016.00
2022-12-03T14:00:26.922Z,102027.44
2022-12-03T14:02:54.257Z,102026.66
2022-12-03T14:05:21.389Z,102027.44
2022-12-03T14:07:48.577Z,102025.53
2022-12-03T14:10:16.825Z,102019.69
2022-12-03T14:12:44.142Z,102022.59
2022-12-03T14:15:11.703Z,102023.25
2022-12-03T14:17:38.759Z,102008.84
2022-12-03T14:20:06.634Z,102015.06
2022-12-03T14:22:36.900Z,102017.63
2022-12-03T14:25:05.774Z,102014.44
2022-12-03T14:27:33.285Z,102003.47
2022-12-03T14:30:00.573Z,102001.84
2022-12-03T14:32:27.582Z,102000.94
2022-12-03T14:34:54.887Z,101999.31
2022-12-03T14:37:21.984Z,102000.06
2022-12-03T14:39:49.038Z,101979.22
2022-12-03T14:42:16.974Z,101998.16
2022-12-03T14:44:51.813Z,102007.03
2022-12-03T14:47:23.985Z,101999.69
2022-12-03T14:49:52.437Z,102002.13
2022-12-03T14:52:20.112Z,102006.69
2022-12-03T14:54:47.150Z,101981.13
2022-12-03T14:57:15.349Z,102005.91
2022-12-03T14:59:44.142Z,102007.56
2022-12-03T15:02:11.943Z,101991.78
2022-12-03T15:04:40.417Z,101997.78
2022-12-03T15:07:08.094Z,101996.88
2022-12-03T15:09:35.383Z,101998.03
2022-12-03T15:12:02.949Z,102006.56
2022-12-03T15:14:30.034Z,101987.47
2022-12-03T15:16:57.298Z,102000.56
2022-12-03T15:19:24.517Z,102001.31
2022-12-03T15:21:51.628Z,101997.53
2022-12-03T15:24:18.785Z,101992.72
2022-12-03T15:26:46.264Z,102001.88
2022-12-03T15:29:14.755Z,101991.97
2022-12-03T15:31:42.056Z,101999.72
2022-12-03T15:34:09.087Z,102007.22
2022-12-03T15:36:36.159Z,101999.09
2022-12-03T15:39:03.745Z,102006.75
2022-12-03T15:41:31.085Z,102009.28
2022-12-03T15:44:01.401Z,101997.06
2022-12-03T15:46:29.591Z,102005.84
2022-12-03T15:48:57.101Z,102003.19
2022-12-03T15:51:25.148Z,102006.47
2022-12-03T15:53:52.233Z,101999.13
2022-12-03T15:56:19.378Z,102007.25
2022-12-03T15:58:46.526Z,102006.09
2022-12-03T16:01:14.168Z,102011.94
2022-12-03T16:03:41.653Z,102005.72
2022-12-03T16:06:09.007Z,102012.88
2022-12-03T16:08:36.446Z,102016.16
2022-12-03T16:11:03.656Z,102013.63
2022-12-03T16:13:30.660Z,102013.34
2022-12-03T16:15:57.790Z,102008.28
2022-12-03T16:18:24.955Z,102009.03
2022-12-03T16:20:52.289Z,102008.41
2022-12-03T16:23:19.436Z,101982.72
2022-12-03T16:25:46.622Z,102010.44
2022-12-03T16:28:14.023Z,102013.09
2022-12-03T16:30:41.192Z,102008.91
2022-12-03T16:33:08.262Z,102001.16
2022-12-03T16:35:35.378Z,101994.69
2022-12-03T16:38:02.418Z,101989.97
2022-12-03T16:40:29.489Z,101998.84
2022-12-03T16:42:56.684Z,101994.28
2022-12-03T16:45:29.362Z,101988.81
2022-12-03T16:47:56.422Z,101986.94
2022-12-03T16:50:29.344Z,101987.16
2022-12-03T16:52:57.987Z,101982.72
2022-12-03T16:55:25.401Z,101979.41
2022-12-03T16:57:52.453Z,101979.69
2022-12-03T17:00:21.774Z,101972.69
2022-12-03T17:02:49.036Z,101970.66
2022-12-03T17:05:18.933Z,101980.19
2022-12-03T17:07:46.389Z,101982.63
2022-12-03T17:10:14.022Z,101978.56
2022-12-03T17:13:08.301Z,101975.75
2022-12-03T17:15:28.300Z,101982.22
2022-12-03T17:17:55.445Z,101985.69
2022-12-03T17:20:22.619Z,101980.34
2022-12-03T17:22:49.720Z,101973.47
2022-12-03T17:25:17.227Z,101976.38
2022-12-03T17:27:45.526Z,101987.22
2022-12-03T17:30:16.625Z,101985.69
2022-12-03T17:32:44.111Z,101990.78
2022-12-03T17:35:12.134Z,101993.44
2022-12-03T17:37:39.152Z,101981.22
2022-12-03T17:40:08.121Z,101984.78
2022-12-03T17:42:35.123Z,101979.19
2022-12-03T17:45:02.774Z,101984.66
2022-12-03T17:47:29.866Z,101988.09
2022-12-03T17:49:57.613Z,101981.22
2022-12-03T17:52:25.021Z,101977.16
2022-12-03T17:55:10.875Z,101979.31
2022-12-03T17:57:39.392Z,101983.91
2022-12-03T18:00:07.055Z,101967.88
2022-12-03T18:02:34.167Z,101977.03
2022-12-03T18:05:01.266Z,101974.97
2022-12-03T18:07:28.432Z,101971.44
2022-12-03T18:09:56.192Z,101975.25
2022-12-03T18:12:23.477Z,101973.47
2022-12-03T18:14:50.559Z,101965.34
2022-12-03T18:17:17.734Z,101966.59
2022-12-03T18:19:44.745Z,101963.81
2022-12-03T18:22:12.936Z,101964.59
2022-12-03T18:24:40.234Z,101968.75
2022-12-03T18:27:07.443Z,101962.03
2022-12-03T18:29:34.637Z,101960.38
2022-12-03T18:32:01.819Z,101960.38
2022-12-03T18:34:28.874Z,101952.91
2022-12-03T18:36:56.365Z,101949.22
2022-12-03T18:39:35.451Z,101949.31
2022-12-03T18:42:13.805Z,101933.06
2022-12-03T18:44:49.416Z,101951.59
2022-12-03T18:47:22.642Z,101936.34
2022-12-03T18:49:49.889Z,101936.34
2022-12-03T18:52:19.851Z,101952.91
2022-12-03T18:54:48.730Z,101947.66
2022-12-03T18:57:16.742Z,101949.97
2022-12-03T18:59:44.151Z,101949.97
2022-12-03T19:05:09.482Z,101953.91
2022-12-03T19:07:39.066Z,101945.91
2022-12-03T19:10:07.171Z,101958.25
2022-12-03T19:12:34.404Z,101945.91
2022-12-03T19:15:01.612Z,101940.06
2022-12-03T19:17:28.802Z,101945.28
2022-12-03T19:19:56.686Z,101946.66
2022-12-03T19:22:24.219Z,101957.97
2022-12-03T19:24:51.212Z,101956.97
2022-12-03T19:27:18.908Z,101952.78
2022-12-03T19:29:49.624Z,101949.44
2022-12-03T19:32:17.201Z,101940.19
2022-12-03T19:34:44.243Z,101950.34
2022-12-03T19:37:11.405Z,101948.84
2022-12-03T19:39:38.431Z,101935.75
2022-12-03T19:42:05.553Z,101936.50
2022-12-03T19:44:32.694Z,101940.19
2022-12-03T19:46:59.705Z,101940.81
2022-12-03T19:49:27.093Z,101941.47
2022-12-03T19:51:54.294Z,101943.47
2022-12-03T19:54:21.290Z,101938.28
2022-12-03T19:56:48.480Z,101940.56
2022-12-03T19:59:17.697Z,101920.59
2022-12-03T20:01:45.499Z,101919.09
2022-12-03T20:04:13.937Z,101920.09
2022-12-03T20:06:41.334Z,101935.47
2022-12-03T20:09:12.187Z,101926.22
2022-12-03T20:11:41.470Z,101931.91
2022-12-03T20:14:11.622Z,101937.91
2022-12-03T20:16:38.862Z,101932.72
2022-12-03T20:19:07.905Z,101924.94
2022-12-03T20:21:36.889Z,101934.06
2022-12-03T20:24:05.125Z,101940.06
2022-12-03T20:26:32.276Z,101931.03
2022-12-03T20:29:00.183Z,101923.94
2022-12-03T20:31:30.198Z,101944.88
2022-12-03T20:34:01.079Z,101932.81
2022-12-03T20:36:29.896Z,101926.59
2022-12-03T20:38:59.358Z,101930.50
2022-12-03T20:41:27.402Z,101907.78
2022-12-03T20:43:55.040Z,101923.16
2022-12-03T20:46:31.035Z,101920.09
2022-12-03T20:48:59.306Z,101915.13
2022-12-03T20:51:29.968Z,101910.69
2022-12-03T20:53:58.885Z,101917.56
2022-12-03T20:56:28.793Z,101905.34
2022-12-03T20:58:56.415Z,101899.13
2022-12-03T21:01:26.325Z,101896.09
2022-12-03T21:03:55.970Z,101903.72
2022-12-03T21:06:25.993Z,101897.88
2022-12-03T21:08:54.387Z,101898.63
2022-12-03T21:11:25.050Z,101896.97
2022-12-03T21:13:53.685Z,101893.66
2022-12-03T21:16:51.913Z,101897.88
2022-12-03T21:19:17.092Z,101897.63
2022-12-03T21:21:44.236Z,101887.72
2022-12-03T21:24:12.839Z,101895.06
2022-12-03T21:26:40.916Z,101899.00
2022-12-03T21:29:07.985Z,101890.53
2022-12-03T21:31:37.242Z,101902.44
2022-12-03T21:34:05.085Z,101898.91
2022-12-03T21:36:32.374Z,101908.16
2022-12-03T21:38:59.975Z,101896.34
2022-12-03T21:41:26.981Z,101897.22
2022-12-03T21:43:54.031Z,101896.34
2022-12-03T21:47:10.002Z,101891.13
2022-12-03T21:49:08.234Z,101890.63
2022-12-03T21:51:35.301Z,101887.31
2022-12-03T21:54:03.575Z,101883.00
2022-12-03T21:56:31.873Z,101880.56
2022-12-03T21:58:59.130Z,101891.66
2022-12-03T22:01:26.528Z,101883.66
2022-12-03T22:03:53.792Z,101893.44
2022-12-03T22:06:21.595Z,101903.59
2022-12-03T22:08:49.095Z,101880.97
2022-12-03T22:11:19.756Z,101895.72
2022-12-03T22:13:47.232Z,101892.41
2022-12-03T22:16:17.136Z,101892.53
2022-12-03T22:18:44.478Z,101883.75
2022-12-03T22:21:14.111Z,101880.47
2022-12-03T22:23:41.543Z,101877.81
2022-12-03T22:26:11.965Z,101878.69
2022-12-03T22:28:43.036Z,101886.31
2022-12-03T22:31:10.785Z,101880.34
2022-12-03T22:33:38.482Z,101868.53
2022-12-03T22:36:08.441Z,101880.34
2022-12-03T22:38:35.965Z,101877.91
2022-12-03T22:41:07.170Z,101876.13
2022-12-03T22:43:37.134Z,101869.28
2022-12-03T22:46:06.445Z,101881.50
2022-12-03T22:48:34.684Z,101880.47
2022-12-03T22:51:02.225Z,101881.50
2022-12-03T22:53:29.312Z,101875.25
2022-12-03T22:55:58.323Z,101873.84
2022-12-03T22:58:26.435Z,101868.63
2022-12-03T23:00:58.574Z,101873.72
2022-12-03T23:03:29.668Z,101873.84
2022-12-03T23:32:13.579Z,101847.03
